sensor_id;sensor_type;location;lat;lon;timestamp;P1;durP1;ratioP1;P2;durP2;ratioP2
13439;SDS011;6792;57.698;11.946;2023-02-24T00:02:18;3.10;;;1.40;;
13439;SDS011;6792;57.698;11.946;2023-02-24T00:04:47;2.37;;;1.30;;
13439;SDS011;6792;57.698;11.946;2023-02-24T00:07:17;1.37;;;1.27;;
13439;SDS011;6792;57.698;11.946;2023-02-24T00:09:46;1.83;;;1.40;;
13439;SDS011;6792;57.698;11.946;2023-02-24T00:12:15;2.03;;;1.27;;
13439;SDS011;6792;57.698;11.946;2023-02-24T00:14:46;2.50;;;1.40;;
13439;SDS011;6792;57.698;11.946;2023-02-24T00:17:15;2.07;;;1.30;;
13439;SDS011;6792;57.698;11.946;2023-02-24T00:19:44;2.83;;;1.40;;
13439;SDS011;6792;57.698;11.946;2023-02-24T00:22:13;2.37;;;1.33;;
13439;SDS011;6792;57.698;11.946;2023-02-24T00:24:42;1.57;;;1.40;;
13439;SDS011;6792;57.698;11.946;2023-02-24T00:27:11;2.20;;;1.23;;
13439;SDS011;6792;57.698;11.946;2023-02-24T00:29:43;3.07;;;1.33;;
13439;SDS011;6792;57.698;11.946;2023-02-24T00:32:15;1.50;;;1.10;;
13439;SDS011;6792;57.698;11.946;2023-02-24T00:34:46;1.70;;;1.10;;
13439;SDS011;6792;57.698;11.946;2023-02-24T00:37:15;1.30;;;0.90;;
13439;SDS011;6792;57.698;11.946;2023-02-24T00:39:49;1.67;;;0.90;;
13439;SDS011;6792;57.698;11.946;2023-02-24T00:42:19;3.30;;;1.30;;
13439;SDS011;6792;57.698;11.946;2023-02-24T00:44:49;1.33;;;1.17;;
13439;SDS011;6792;57.698;11.946;2023-02-24T00:47:19;2.93;;;1.13;;
13439;SDS011;6792;57.698;11.946;2023-02-24T00:49:48;3.77;;;1.27;;
13439;SDS011;6792;57.698;11.946;2023-02-24T00:52:18;1.90;;;1.00;;
13439;SDS011;6792;57.698;11.946;2023-02-24T00:54:48;1.47;;;0.90;;
13439;SDS011;6792;57.698;11.946;2023-02-24T00:57:17;2.67;;;0.93;;
13439;SDS011;6792;57.698;11.946;2023-02-24T00:59:46;4.03;;;1.10;;
13439;SDS011;6792;57.698;11.946;2023-02-24T01:02:17;1.70;;;0.90;;
13439;SDS011;6792;57.698;11.946;2023-02-24T01:04:46;4.33;;;1.33;;
13439;SDS011;6792;57.698;11.946;2023-02-24T01:07:16;2.63;;;1.07;;
13439;SDS011;6792;57.698;11.946;2023-02-24T01:09:48;5.60;;;1.23;;
13439;SDS011;6792;57.698;11.946;2023-02-24T01:12:16;3.00;;;1.00;;
13439;SDS011;6792;57.698;11.946;2023-02-24T01:18:02;6.50;;;1.27;;
13439;SDS011;6792;57.698;11.946;2023-02-24T01:20:31;5.77;;;1.13;;
13439;SDS011;6792;57.698;11.946;2023-02-24T01:23:03;9.63;;;1.37;;
13439;SDS011;6792;57.698;11.946;2023-02-24T01:25:34;6.77;;;1.07;;
13439;SDS011;6792;57.698;11.946;2023-02-24T01:28:07;2.70;;;0.77;;
13439;SDS011;6792;57.698;11.946;2023-02-24T01:30:37;5.40;;;1.10;;
13439;SDS011;6792;57.698;11.946;2023-02-24T01:33:07;8.07;;;1.33;;
13439;SDS011;6792;57.698;11.946;2023-02-24T01:35:39;6.87;;;1.10;;
13439;SDS011;6792;57.698;11.946;2023-02-24T01:38:11;5.57;;;1.20;;
13439;SDS011;6792;57.698;11.946;2023-02-24T01:40:41;9.13;;;1.40;;
13439;SDS011;6792;57.698;11.946;2023-02-24T01:43:10;6.57;;;1.30;;
13439;SDS011;6792;57.698;11.946;2023-02-24T01:45:41;3.97;;;0.90;;
13439;SDS011;6792;57.698;11.946;2023-02-24T01:48:14;7.07;;;1.13;;
13439;SDS011;6792;57.698;11.946;2023-02-24T01:50:44;3.80;;;1.07;;
13439;SDS011;6792;57.698;11.946;2023-02-24T01:53:15;5.60;;;1.60;;
13439;SDS011;6792;57.698;11.946;2023-02-24T01:55:46;8.17;;;1.40;;
13439;SDS011;6792;57.698;11.946;2023-02-24T01:58:19;6.87;;;1.50;;
13439;SDS011;6792;57.698;11.946;2023-02-24T02:00:58;9.40;;;1.50;;
13439;SDS011;6792;57.698;11.946;2023-02-24T02:03:30;6.30;;;1.03;;
13439;SDS011;6792;57.698;11.946;2023-02-24T02:06:02;9.67;;;1.63;;
13439;SDS011;6792;57.698;11.946;2023-02-24T02:08:33;4.77;;;1.20;;
13439;SDS011;6792;57.698;11.946;2023-02-24T02:11:06;7.77;;;1.30;;
13439;SDS011;6792;57.698;11.946;2023-02-24T02:13:37;7.30;;;1.20;;
13439;SDS011;6792;57.698;11.946;2023-02-24T02:19:29;7.00;;;1.60;;
13439;SDS011;6792;57.698;11.946;2023-02-24T02:22:18;10.40;;;1.60;;
13439;SDS011;6792;57.698;11.946;2023-02-24T02:25:14;2.83;;;1.07;;
13439;SDS011;6792;57.698;11.946;2023-02-24T02:27:51;6.23;;;1.30;;
13439;SDS011;6792;57.698;11.946;2023-02-24T02:33:54;13.80;;;1.67;;
13439;SDS011;6792;57.698;11.946;2023-02-24T02:36:54;4.23;;;1.20;;
13439;SDS011;6792;57.698;11.946;2023-02-24T02:39:29;5.27;;;1.23;;
13439;SDS011;6792;57.698;11.946;2023-02-24T02:42:02;6.03;;;1.23;;
13439;SDS011;6792;57.698;11.946;2023-02-24T02:44:38;6.53;;;1.30;;
13439;SDS011;6792;57.698;11.946;2023-02-24T02:47:12;6.97;;;1.40;;
13439;SDS011;6792;57.698;11.946;2023-02-24T02:49:44;5.03;;;1.07;;
13439;SDS011;6792;57.698;11.946;2023-02-24T02:52:18;5.83;;;1.13;;
13439;SDS011;6792;57.698;11.946;2023-02-24T02:54:51;6.07;;;1.30;;
13439;SDS011;6792;57.698;11.946;2023-02-24T02:57:24;5.43;;;1.10;;
13439;SDS011;6792;57.698;11.946;2023-02-24T02:59:55;3.53;;;1.00;;
13439;SDS011;6792;57.698;11.946;2023-02-24T03:02:34;2.50;;;0.80;;
13439;SDS011;6792;57.698;11.946;2023-02-24T03:05:07;2.80;;;0.80;;
13439;SDS011;6792;57.698;11.946;2023-02-24T03:07:41;3.67;;;0.70;;
13439;SDS011;6792;57.698;11.946;2023-02-24T03:10:14;5.37;;;0.70;;
13439;SDS011;6792;57.698;11.946;2023-02-24T03:12:49;2.97;;;0.80;;
13439;SDS011;6792;57.698;11.946;2023-02-24T03:15:21;3.07;;;1.00;;
13439;SDS011;6792;57.698;11.946;2023-02-24T03:17:53;6.20;;;1.03;;
13439;SDS011;6792;57.698;11.946;2023-02-24T03:20:28;1.57;;;0.67;;
13439;SDS011;6792;57.698;11.946;2023-02-24T03:23:00;2.23;;;0.90;;
13439;SDS011;6792;57.698;11.946;2023-02-24T03:25:35;2.60;;;0.67;;
13439;SDS011;6792;57.698;11.946;2023-02-24T03:28:08;1.03;;;0.63;;
13439;SDS011;6792;57.698;11.946;2023-02-24T03:30:42;1.80;;;0.60;;
13439;SDS011;6792;57.698;11.946;2023-02-24T03:33:15;2.63;;;0.60;;
13439;SDS011;6792;57.698;11.946;2023-02-24T03:35:47;0.67;;;0.50;;
13439;SDS011;6792;57.698;11.946;2023-02-24T03:38:17;1.27;;;0.67;;
13439;SDS011;6792;57.698;11.946;2023-02-24T03:40:48;3.30;;;0.73;;
13439;SDS011;6792;57.698;11.946;2023-02-24T03:43:19;2.20;;;0.30;;
13439;SDS011;6792;57.698;11.946;2023-02-24T03:45:51;1.73;;;0.40;;
13439;SDS011;6792;57.698;11.946;2023-02-24T03:48:21;0.70;;;0.37;;
13439;SDS011;6792;57.698;11.946;2023-02-24T03:50:51;5.03;;;0.67;;
13439;SDS011;6792;57.698;11.946;2023-02-24T03:53:24;3.17;;;0.50;;
13439;SDS011;6792;57.698;11.946;2023-02-24T03:56:08;1.93;;;0.40;;
13439;SDS011;6792;57.698;11.946;2023-02-24T03:58:45;0.97;;;0.40;;
13439;SDS011;6792;57.698;11.946;2023-02-24T04:01:18;1.00;;;0.50;;
13439;SDS011;6792;57.698;11.946;2023-02-24T04:03:53;2.17;;;0.40;;
13439;SDS011;6792;57.698;11.946;2023-02-24T04:06:26;0.97;;;0.47;;
13439;SDS011;6792;57.698;11.946;2023-02-24T04:09:00;1.23;;;0.47;;
13439;SDS011;6792;57.698;11.946;2023-02-24T04:11:33;2.33;;;0.40;;
13439;SDS011;6792;57.698;11.946;2023-02-24T04:14:17;1.77;;;0.47;;
13439;SDS011;6792;57.698;11.946;2023-02-24T04:16:51;1.80;;;0.60;;
13439;SDS011;6792;57.698;11.946;2023-02-24T04:19:26;2.73;;;0.50;;
13439;SDS011;6792;57.698;11.946;2023-02-24T04:21:57;3.20;;;0.50;;
13439;SDS011;6792;57.698;11.946;2023-02-24T04:24:29;1.40;;;0.40;;
13439;SDS011;6792;57.698;11.946;2023-02-24T04:27:00;1.13;;;0.43;;
13439;SDS011;6792;57.698;11.946;2023-02-24T04:29:33;3.27;;;0.33;;
13439;SDS011;6792;57.698;11.946;2023-02-24T04:32:05;0.60;;;0.23;;
13439;SDS011;6792;57.698;11.946;2023-02-24T04:34:36;0.37;;;0.27;;
13439;SDS011;6792;57.698;11.946;2023-02-24T04:37:07;2.27;;;0.53;;
13439;SDS011;6792;57.698;11.946;2023-02-24T04:39:36;1.20;;;0.50;;
13439;SDS011;6792;57.698;11.946;2023-02-24T04:42:05;3.20;;;0.63;;
13439;SDS011;6792;57.698;11.946;2023-02-24T04:44:34;5.10;;;0.70;;
13439;SDS011;6792;57.698;11.946;2023-02-24T04:47:03;2.70;;;0.83;;
13439;SDS011;6792;57.698;11.946;2023-02-24T04:49:34;1.93;;;0.40;;
13439;SDS011;6792;57.698;11.946;2023-02-24T04:52:05;1.40;;;0.30;;
13439;SDS011;6792;57.698;11.946;2023-02-24T04:54:35;1.70;;;0.53;;
13439;SDS011;6792;57.698;11.946;2023-02-24T04:57:05;3.07;;;0.57;;
13439;SDS011;6792;57.698;11.946;2023-02-24T04:59:35;4.33;;;0.70;;
13439;SDS011;6792;57.698;11.946;2023-02-24T05:02:06;2.93;;;0.73;;
13439;SDS011;6792;57.698;11.946;2023-02-24T05:04:35;5.03;;;0.33;;
13439;SDS011;6792;57.698;11.946;2023-02-24T05:07:04;2.43;;;0.57;;
13439;SDS011;6792;57.698;11.946;2023-02-24T05:09:33;2.10;;;0.50;;
13439;SDS011;6792;57.698;11.946;2023-02-24T05:12:03;3.97;;;0.60;;
13439;SDS011;6792;57.698;11.946;2023-02-24T05:14:35;4.60;;;0.53;;
13439;SDS011;6792;57.698;11.946;2023-02-24T05:17:04;2.23;;;0.63;;
13439;SDS011;6792;57.698;11.946;2023-02-24T05:19:35;2.63;;;0.60;;
13439;SDS011;6792;57.698;11.946;2023-02-24T05:22:22;3.77;;;0.57;;
13439;SDS011;6792;57.698;11.946;2023-02-24T05:24:51;3.57;;;0.60;;
13439;SDS011;6792;57.698;11.946;2023-02-24T05:27:22;3.93;;;0.53;;
13439;SDS011;6792;57.698;11.946;2023-02-24T05:29:52;4.97;;;0.73;;
13439;SDS011;6792;57.698;11.946;2023-02-24T05:32:21;2.03;;;0.50;;
13439;SDS011;6792;57.698;11.946;2023-02-24T05:34:51;5.00;;;0.50;;
13439;SDS011;6792;57.698;11.946;2023-02-24T05:37:20;3.57;;;0.60;;
13439;SDS011;6792;57.698;11.946;2023-02-24T05:39:49;4.10;;;0.90;;
13439;SDS011;6792;57.698;11.946;2023-02-24T05:42:21;2.07;;;0.57;;
13439;SDS011;6792;57.698;11.946;2023-02-24T05:44:53;3.97;;;0.87;;
13439;SDS011;6792;57.698;11.946;2023-02-24T05:47:22;5.63;;;0.80;;
13439;SDS011;6792;57.698;11.946;2023-02-24T05:49:52;2.40;;;0.40;;
13439;SDS011;6792;57.698;11.946;2023-02-24T05:52:23;2.73;;;0.20;;
13439;SDS011;6792;57.698;11.946;2023-02-24T05:54:52;1.77;;;0.30;;
13439;SDS011;6792;57.698;11.946;2023-02-24T05:57:22;3.40;;;0.40;;
13439;SDS011;6792;57.698;11.946;2023-02-24T05:59:53;1.53;;;0.50;;
13439;SDS011;6792;57.698;11.946;2023-02-24T06:02:22;1.07;;;0.30;;
13439;SDS011;6792;57.698;11.946;2023-02-24T06:04:54;3.33;;;0.53;;
13439;SDS011;6792;57.698;11.946;2023-02-24T06:07:26;1.30;;;0.30;;
13439;SDS011;6792;57.698;11.946;2023-02-24T06:09:57;3.03;;;0.50;;
13439;SDS011;6792;57.698;11.946;2023-02-24T06:12:33;3.87;;;0.33;;
13439;SDS011;6792;57.698;11.946;2023-02-24T06:15:05;0.57;;;0.20;;
13439;SDS011;6792;57.698;11.946;2023-02-24T06:17:37;1.93;;;0.40;;
13439;SDS011;6792;57.698;11.946;2023-02-24T06:20:06;2.10;;;0.57;;
13439;SDS011;6792;57.698;11.946;2023-02-24T06:22:41;4.13;;;0.50;;
13439;SDS011;6792;57.698;11.946;2023-02-24T06:25:10;3.50;;;0.40;;
13439;SDS011;6792;57.698;11.946;2023-02-24T06:27:43;1.97;;;0.40;;
13439;SDS011;6792;57.698;11.946;2023-02-24T06:30:14;0.17;;;0.10;;
13439;SDS011;6792;57.698;11.946;2023-02-24T06:32:43;0.50;;;0.20;;
13439;SDS011;6792;57.698;11.946;2023-02-24T06:35:13;2.50;;;0.37;;
13439;SDS011;6792;57.698;11.946;2023-02-24T06:37:42;3.33;;;0.47;;
13439;SDS011;6792;57.698;11.946;2023-02-24T06:40:12;1.17;;;0.33;;
13439;SDS011;6792;57.698;11.946;2023-02-24T06:42:45;2.40;;;0.40;;
13439;SDS011;6792;57.698;11.946;2023-02-24T06:45:18;1.00;;;0.40;;
13439;SDS011;6792;57.698;11.946;2023-02-24T06:47:52;1.43;;;0.50;;
13439;SDS011;6792;57.698;11.946;2023-02-24T06:50:21;0.67;;;0.30;;
13439;SDS011;6792;57.698;11.946;2023-02-24T06:52:53;1.57;;;0.60;;
13439;SDS011;6792;57.698;11.946;2023-02-24T06:55:23;1.27;;;0.50;;
13439;SDS011;6792;57.698;11.946;2023-02-24T06:57:53;0.90;;;0.50;;
13439;SDS011;6792;57.698;11.946;2023-02-24T07:00:24;1.20;;;0.60;;
13439;SDS011;6792;57.698;11.946;2023-02-24T07:03:04;2.73;;;0.43;;
13439;SDS011;6792;57.698;11.946;2023-02-24T07:05:46;2.80;;;0.60;;
13439;SDS011;6792;57.698;11.946;2023-02-24T07:08:18;0.97;;;0.50;;
13439;SDS011;6792;57.698;11.946;2023-02-24T07:10:52;0.50;;;0.50;;
13439;SDS011;6792;57.698;11.946;2023-02-24T07:13:23;0.40;;;0.40;;
13439;SDS011;6792;57.698;11.946;2023-02-24T07:15:55;2.90;;;0.80;;
13439;SDS011;6792;57.698;11.946;2023-02-24T07:18:27;1.87;;;0.73;;
13439;SDS011;6792;57.698;11.946;2023-02-24T07:20:59;0.40;;;0.40;;
13439;SDS011;6792;57.698;11.946;2023-02-24T07:23:32;1.43;;;0.57;;
13439;SDS011;6792;57.698;11.946;2023-02-24T07:26:01;5.30;;;0.63;;
13439;SDS011;6792;57.698;11.946;2023-02-24T07:28:39;1.60;;;0.53;;
13439;SDS011;6792;57.698;11.946;2023-02-24T07:31:19;3.27;;;0.53;;
13439;SDS011;6792;57.698;11.946;2023-02-24T07:33:52;1.27;;;0.50;;
13439;SDS011;6792;57.698;11.946;2023-02-24T07:36:22;1.10;;;0.50;;
13439;SDS011;6792;57.698;11.946;2023-02-24T07:38:54;6.83;;;1.03;;
13439;SDS011;6792;57.698;11.946;2023-02-24T07:41:24;1.20;;;0.60;;
13439;SDS011;6792;57.698;11.946;2023-02-24T07:43:54;1.83;;;0.80;;
13439;SDS011;6792;57.698;11.946;2023-02-24T07:46:25;4.43;;;0.77;;
13439;SDS011;6792;57.698;11.946;2023-02-24T07:48:55;2.47;;;0.70;;
13439;SDS011;6792;57.698;11.946;2023-02-24T07:51:26;4.73;;;1.17;;
13439;SDS011;6792;57.698;11.946;2023-02-24T07:53:56;3.43;;;0.90;;
13439;SDS011;6792;57.698;11.946;2023-02-24T07:56:28;4.30;;;0.90;;
13439;SDS011;6792;57.698;11.946;2023-02-24T07:58:59;2.03;;;0.70;;
13439;SDS011;6792;57.698;11.946;2023-02-24T08:01:32;2.43;;;0.90;;
13439;SDS011;6792;57.698;11.946;2023-02-24T08:04:05;2.00;;;0.97;;
13439;SDS011;6792;57.698;11.946;2023-02-24T08:06:39;3.13;;;1.00;;
13439;SDS011;6792;57.698;11.946;2023-02-24T08:09:10;3.13;;;1.10;;
13439;SDS011;6792;57.698;11.946;2023-02-24T08:11:46;3.53;;;1.40;;
13439;SDS011;6792;57.698;11.946;2023-02-24T08:14:18;2.47;;;1.27;;
13439;SDS011;6792;57.698;11.946;2023-02-24T08:16:49;6.07;;;1.77;;
13439;SDS011;6792;57.698;11.946;2023-02-24T08:19:21;9.53;;;1.50;;
13439;SDS011;6792;57.698;11.946;2023-02-24T08:21:51;6.23;;;1.77;;
13439;SDS011;6792;57.698;11.946;2023-02-24T08:24:22;7.20;;;1.67;;
13439;SDS011;6792;57.698;11.946;2023-02-24T08:26:54;8.83;;;1.40;;
13439;SDS011;6792;57.698;11.946;2023-02-24T08:29:30;6.73;;;1.07;;
13439;SDS011;6792;57.698;11.946;2023-02-24T08:32:03;7.40;;;0.97;;
13439;SDS011;6792;57.698;11.946;2023-02-24T08:34:34;7.63;;;1.20;;
13439;SDS011;6792;57.698;11.946;2023-02-24T08:37:04;9.30;;;1.20;;
13439;SDS011;6792;57.698;11.946;2023-02-24T08:39:33;3.77;;;1.10;;
13439;SDS011;6792;57.698;11.946;2023-02-24T08:42:24;7.10;;;1.30;;
13439;SDS011;6792;57.698;11.946;2023-02-24T08:44:56;3.23;;;0.87;;
13439;SDS011;6792;57.698;11.946;2023-02-24T08:47:25;10.23;;;0.93;;
13439;SDS011;6792;57.698;11.946;2023-02-24T08:49:58;6.33;;;1.07;;
13439;SDS011;6792;57.698;11.946;2023-02-24T08:52:37;3.10;;;1.00;;
13439;SDS011;6792;57.698;11.946;2023-02-24T08:55:07;4.30;;;1.00;;
13439;SDS011;6792;57.698;11.946;2023-02-24T08:57:37;2.60;;;0.80;;
13439;SDS011;6792;57.698;11.946;2023-02-24T09:00:12;5.37;;;0.90;;
13439;SDS011;6792;57.698;11.946;2023-02-24T09:02:49;2.30;;;1.10;;
13439;SDS011;6792;57.698;11.946;2023-02-24T09:05:20;3.97;;;0.70;;
13439;SDS011;6792;57.698;11.946;2023-02-24T09:07:50;4.90;;;0.53;;
13439;SDS011;6792;57.698;11.946;2023-02-24T09:10:28;4.93;;;0.53;;
13439;SDS011;6792;57.698;11.946;2023-02-24T09:13:00;2.43;;;0.70;;
13439;SDS011;6792;57.698;11.946;2023-02-24T09:15:32;5.77;;;0.60;;
13439;SDS011;6792;57.698;11.946;2023-02-24T09:18:06;5.30;;;1.17;;
13439;SDS011;6792;57.698;11.946;2023-02-24T09:20:40;1.03;;;0.67;;
13439;SDS011;6792;57.698;11.946;2023-02-24T09:23:34;1.53;;;0.60;;
13439;SDS011;6792;57.698;11.946;2023-02-24T09:26:09;4.30;;;1.00;;
13439;SDS011;6792;57.698;11.946;2023-02-24T09:28:41;2.53;;;0.57;;
13439;SDS011;6792;57.698;11.946;2023-02-24T09:31:21;5.43;;;0.80;;
13439;SDS011;6792;57.698;11.946;2023-02-24T09:33:54;3.27;;;0.50;;
13439;SDS011;6792;57.698;11.946;2023-02-24T09:36:25;1.87;;;0.70;;
13439;SDS011;6792;57.698;11.946;2023-02-24T09:38:58;3.73;;;0.53;;
13439;SDS011;6792;57.698;11.946;2023-02-24T09:41:40;1.50;;;0.30;;
13439;SDS011;6792;57.698;11.946;2023-02-24T09:44:40;4.13;;;0.80;;
13439;SDS011;6792;57.698;11.946;2023-02-24T09:47:16;2.10;;;0.43;;
13439;SDS011;6792;57.698;11.946;2023-02-24T09:50:02;3.07;;;0.50;;
13439;SDS011;6792;57.698;11.946;2023-02-24T09:52:37;4.27;;;0.50;;
13439;SDS011;6792;57.698;11.946;2023-02-24T09:55:13;4.00;;;0.40;;
13439;SDS011;6792;57.698;11.946;2023-02-24T09:57:47;10.63;;;0.80;;
13439;SDS011;6792;57.698;11.946;2023-02-24T10:00:38;4.37;;;1.00;;
13439;SDS011;6792;57.698;11.946;2023-02-24T10:03:11;3.07;;;0.63;;
13439;SDS011;6792;57.698;11.946;2023-02-24T10:05:55;1.43;;;0.40;;
13439;SDS011;6792;57.698;11.946;2023-02-24T10:08:32;7.57;;;0.60;;
13439;SDS011;6792;57.698;11.946;2023-02-24T10:11:09;2.63;;;0.90;;
13439;SDS011;6792;57.698;11.946;2023-02-24T10:13:48;1.73;;;0.60;;
13439;SDS011;6792;57.698;11.946;2023-02-24T10:16:21;3.80;;;0.50;;
13439;SDS011;6792;57.698;11.946;2023-02-24T10:18:52;2.30;;;0.50;;
13439;SDS011;6792;57.698;11.946;2023-02-24T10:21:29;2.47;;;0.60;;
13439;SDS011;6792;57.698;11.946;2023-02-24T10:24:07;5.47;;;0.70;;
13439;SDS011;6792;57.698;11.946;2023-02-24T10:26:40;3.63;;;0.70;;
13439;SDS011;6792;57.698;11.946;2023-02-24T10:29:16;6.10;;;0.63;;
13439;SDS011;6792;57.698;11.946;2023-02-24T10:31:58;3.70;;;0.60;;
13439;SDS011;6792;57.698;11.946;2023-02-24T10:34:32;6.40;;;0.70;;
13439;SDS011;6792;57.698;11.946;2023-02-24T10:37:02;1.63;;;0.50;;
13439;SDS011;6792;57.698;11.946;2023-02-24T10:39:37;2.67;;;0.53;;
13439;SDS011;6792;57.698;11.946;2023-02-24T10:42:08;4.10;;;0.77;;
13439;SDS011;6792;57.698;11.946;2023-02-24T10:44:45;6.23;;;0.90;;
13439;SDS011;6792;57.698;11.946;2023-02-24T10:47:25;3.87;;;0.57;;
13439;SDS011;6792;57.698;11.946;2023-02-24T10:49:55;4.73;;;0.60;;
13439;SDS011;6792;57.698;11.946;2023-02-24T10:52:29;2.53;;;0.63;;
13439;SDS011;6792;57.698;11.946;2023-02-24T10:55:23;1.87;;;0.70;;
13439;SDS011;6792;57.698;11.946;2023-02-24T10:57:59;5.03;;;0.90;;
13439;SDS011;6792;57.698;11.946;2023-02-24T11:00:38;3.73;;;0.40;;
13439;SDS011;6792;57.698;11.946;2023-02-24T11:03:28;6.53;;;1.30;;
13439;SDS011;6792;57.698;11.946;2023-02-24T11:06:16;1.40;;;0.40;;
13439;SDS011;6792;57.698;11.946;2023-02-24T11:08:58;4.00;;;0.63;;
13439;SDS011;6792;57.698;11.946;2023-02-24T11:11:46;2.83;;;0.63;;
13439;SDS011;6792;57.698;11.946;2023-02-24T11:14:35;5.40;;;0.53;;
13439;SDS011;6792;57.698;11.946;2023-02-24T11:17:23;3.07;;;0.90;;
13439;SDS011;6792;57.698;11.946;2023-02-24T11:19:57;3.67;;;0.70;;
13439;SDS011;6792;57.698;11.946;2023-02-24T11:22:30;1.83;;;0.80;;
13439;SDS011;6792;57.698;11.946;2023-02-24T11:25:03;2.83;;;0.83;;
13439;SDS011;6792;57.698;11.946;2023-02-24T11:27:35;4.40;;;0.60;;
13439;SDS011;6792;57.698;11.946;2023-02-24T11:30:11;3.27;;;0.70;;
13439;SDS011;6792;57.698;11.946;2023-02-24T11:32:47;1.57;;;0.50;;
13439;SDS011;6792;57.698;11.946;2023-02-24T11:35:29;4.03;;;0.90;;
13439;SDS011;6792;57.698;11.946;2023-02-24T11:38:00;2.47;;;0.50;;
13439;SDS011;6792;57.698;11.946;2023-02-24T11:40:36;9.30;;;0.77;;
13439;SDS011;6792;57.698;11.946;2023-02-24T11:43:14;4.30;;;0.77;;
13439;SDS011;6792;57.698;11.946;2023-02-24T11:45:46;4.60;;;0.80;;
13439;SDS011;6792;57.698;11.946;2023-02-24T11:48:17;4.93;;;0.80;;
13439;SDS011;6792;57.698;11.946;2023-02-24T11:50:49;1.67;;;0.80;;
13439;SDS011;6792;57.698;11.946;2023-02-24T11:53:25;2.37;;;0.80;;
13439;SDS011;6792;57.698;11.946;2023-02-24T11:55:58;3.13;;;0.80;;
13439;SDS011;6792;57.698;11.946;2023-02-24T11:58:36;3.07;;;1.00;;
13439;SDS011;6792;57.698;11.946;2023-02-24T12:01:09;8.80;;;0.87;;
13439;SDS011;6792;57.698;11.946;2023-02-24T12:03:43;6.37;;;0.73;;
13439;SDS011;6792;57.698;11.946;2023-02-24T12:06:20;2.03;;;0.73;;
13439;SDS011;6792;57.698;11.946;2023-02-24T12:08:52;2.07;;;0.77;;
13439;SDS011;6792;57.698;11.946;2023-02-24T12:11:28;1.73;;;0.80;;
13439;SDS011;6792;57.698;11.946;2023-02-24T12:14:04;2.57;;;0.50;;
13439;SDS011;6792;57.698;11.946;2023-02-24T12:16:37;4.53;;;0.90;;
13439;SDS011;6792;57.698;11.946;2023-02-24T12:19:14;4.50;;;0.90;;
13439;SDS011;6792;57.698;11.946;2023-02-24T12:21:46;5.43;;;1.47;;
13439;SDS011;6792;57.698;11.946;2023-02-24T12:24:18;3.67;;;1.47;;
13439;SDS011;6792;57.698;11.946;2023-02-24T12:26:51;2.77;;;1.50;;
13439;SDS011;6792;57.698;11.946;2023-02-24T12:29:31;4.37;;;1.37;;
13439;SDS011;6792;57.698;11.946;2023-02-24T12:32:11;3.87;;;1.17;;
13439;SDS011;6792;57.698;11.946;2023-02-24T12:34:46;1.77;;;0.90;;
13439;SDS011;6792;57.698;11.946;2023-02-24T12:37:18;2.23;;;0.47;;
13439;SDS011;6792;57.698;11.946;2023-02-24T12:39:54;4.07;;;0.90;;
13439;SDS011;6792;57.698;11.946;2023-02-24T12:42:25;1.83;;;0.60;;
13439;SDS011;6792;57.698;11.946;2023-02-24T12:45:00;3.90;;;0.70;;
13439;SDS011;6792;57.698;11.946;2023-02-24T12:47:35;4.40;;;0.80;;
13439;SDS011;6792;57.698;11.946;2023-02-24T12:50:08;2.30;;;0.70;;
13439;SDS011;6792;57.698;11.946;2023-02-24T12:52:47;1.13;;;0.60;;
13439;SDS011;6792;57.698;11.946;2023-02-24T12:55:21;2.10;;;0.57;;
13439;SDS011;6792;57.698;11.946;2023-02-24T12:57:55;5.30;;;0.60;;
13439;SDS011;6792;57.698;11.946;2023-02-24T13:00:29;7.73;;;0.90;;
13439;SDS011;6792;57.698;11.946;2023-02-24T13:03:05;1.90;;;0.80;;
13439;SDS011;6792;57.698;11.946;2023-02-24T13:05:48;4.37;;;1.10;;
13439;SDS011;6792;57.698;11.946;2023-02-24T13:08:31;5.60;;;1.37;;
13439;SDS011;6792;57.698;11.946;2023-02-24T13:11:04;2.80;;;0.80;;
13439;SDS011;6792;57.698;11.946;2023-02-24T13:13:39;2.90;;;0.90;;
13439;SDS011;6792;57.698;11.946;2023-02-24T13:16:11;4.53;;;0.90;;
13439;SDS011;6792;57.698;11.946;2023-02-24T13:18:40;4.87;;;1.00;;
13439;SDS011;6792;57.698;11.946;2023-02-24T13:21:18;3.03;;;0.57;;
13439;SDS011;6792;57.698;11.946;2023-02-24T13:23:52;0.93;;;0.60;;
13439;SDS011;6792;57.698;11.946;2023-02-24T13:26:23;0.30;;;0.30;;
13439;SDS011;6792;57.698;11.946;2023-02-24T13:28:57;0.30;;;0.20;;
13439;SDS011;6792;57.698;11.946;2023-02-24T13:31:38;1.07;;;0.30;;
13439;SDS011;6792;57.698;11.946;2023-02-24T13:34:12;0.50;;;0.40;;
13439;SDS011;6792;57.698;11.946;2023-02-24T13:36:47;0.20;;;0.17;;
13439;SDS011;6792;57.698;11.946;2023-02-24T13:39:22;0.10;;;0.10;;
13439;SDS011;6792;57.698;11.946;2023-02-24T13:42:01;1.70;;;0.27;;
13439;SDS011;6792;57.698;11.946;2023-02-24T13:44:32;0.17;;;0.17;;
13439;SDS011;6792;57.698;11.946;2023-02-24T13:47:07;0.50;;;0.13;;
13439;SDS011;6792;57.698;11.946;2023-02-24T13:50:03;0.50;;;0.10;;
13439;SDS011;6792;57.698;11.946;2023-02-24T13:52:49;0.67;;;0.10;;
13439;SDS011;6792;57.698;11.946;2023-02-24T13:55:39;1.00;;;0.20;;
13439;SDS011;6792;57.698;11.946;2023-02-24T13:58:21;0.20;;;0.20;;
13439;SDS011;6792;57.698;11.946;2023-02-24T14:01:04;0.40;;;0.23;;
13439;SDS011;6792;57.698;11.946;2023-02-24T14:03:34;2.10;;;0.20;;
13439;SDS011;6792;57.698;11.946;2023-02-24T14:06:06;0.37;;;0.37;;
13439;SDS011;6792;57.698;11.946;2023-02-24T14:08:44;0.70;;;0.30;;
13439;SDS011;6792;57.698;11.946;2023-02-24T14:11:18;0.33;;;0.20;;
13439;SDS011;6792;57.698;11.946;2023-02-24T14:13:51;3.17;;;0.40;;
13439;SDS011;6792;57.698;11.946;2023-02-24T14:16:25;1.07;;;0.40;;
13439;SDS011;6792;57.698;11.946;2023-02-24T14:18:59;3.10;;;0.40;;
13439;SDS011;6792;57.698;11.946;2023-02-24T14:21:31;0.50;;;0.30;;
13439;SDS011;6792;57.698;11.946;2023-02-24T14:24:00;0.40;;;0.20;;
13439;SDS011;6792;57.698;11.946;2023-02-24T14:26:40;0.57;;;0.33;;
13439;SDS011;6792;57.698;11.946;2023-02-24T14:29:05;2.30;;;0.63;;
13439;SDS011;6792;57.698;11.946;2023-02-24T14:31:35;0.93;;;0.30;;
13439;SDS011;6792;57.698;11.946;2023-02-24T14:34:04;0.20;;;0.20;;
13439;SDS011;6792;57.698;11.946;2023-02-24T14:36:35;0.20;;;0.20;;
13439;SDS011;6792;57.698;11.946;2023-02-24T14:39:08;0.40;;;0.20;;
13439;SDS011;6792;57.698;11.946;2023-02-24T14:41:41;0.20;;;0.20;;
13439;SDS011;6792;57.698;11.946;2023-02-24T14:44:16;0.20;;;0.17;;
13439;SDS011;6792;57.698;11.946;2023-02-24T14:46:48;0.10;;;0.10;;
13439;SDS011;6792;57.698;11.946;2023-02-24T14:49:20;0.63;;;0.30;;
13439;SDS011;6792;57.698;11.946;2023-02-24T14:51:53;0.20;;;0.20;;
13439;SDS011;6792;57.698;11.946;2023-02-24T14:54:37;0.10;;;0.10;;
13439;SDS011;6792;57.698;11.946;2023-02-24T14:57:11;0.73;;;0.30;;
13439;SDS011;6792;57.698;11.946;2023-02-24T14:59:42;0.43;;;0.30;;
13439;SDS011;6792;57.698;11.946;2023-02-24T15:02:14;0.20;;;0.20;;
13439;SDS011;6792;57.698;11.946;2023-02-24T15:04:45;0.10;;;0.10;;
13439;SDS011;6792;57.698;11.946;2023-02-24T15:07:16;0.10;;;0.10;;
13439;SDS011;6792;57.698;11.946;2023-02-24T15:09:48;0.47;;;0.13;;
13439;SDS011;6792;57.698;11.946;2023-02-24T15:12:20;1.37;;;0.23;;
13439;SDS011;6792;57.698;11.946;2023-02-24T15:14:52;0.50;;;0.30;;
13439;SDS011;6792;57.698;11.946;2023-02-24T15:17:24;0.53;;;0.33;;
13439;SDS011;6792;57.698;11.946;2023-02-24T15:19:53;0.60;;;0.20;;
13439;SDS011;6792;57.698;11.946;2023-02-24T15:22:24;0.30;;;0.30;;
13439;SDS011;6792;57.698;11.946;2023-02-24T15:24:54;0.33;;;0.30;;
13439;SDS011;6792;57.698;11.946;2023-02-24T15:27:27;0.30;;;0.20;;
13439;SDS011;6792;57.698;11.946;2023-02-24T15:30:00;0.20;;;0.20;;
13439;SDS011;6792;57.698;11.946;2023-02-24T15:32:32;0.20;;;0.20;;
13439;SDS011;6792;57.698;11.946;2023-02-24T15:35:04;0.30;;;0.30;;
13439;SDS011;6792;57.698;11.946;2023-02-24T15:37:37;0.10;;;0.10;;